createdAt,value
2023-09-26T00:01:30.577Z,69.85
2023-09-26T00:04:00.271Z,69.68
2023-09-26T00:06:26.905Z,70.01
2023-09-26T00:08:53.335Z,70.03
2023-09-26T00:11:20.629Z,70.07
2023-09-26T00:13:47.334Z,70.45
2023-09-26T00:16:13.826Z,70.56
2023-09-26T00:18:40.288Z,70.91
2023-09-26T00:21:07.553Z,70.86
2023-09-26T00:23:33.953Z,71.08
2023-09-26T00:26:00.344Z,71.45
2023-09-26T00:28:26.862Z,71.77
2023-09-26T00:30:53.300Z,71.76
2023-09-26T00:33:19.706Z,71.62
2023-09-26T00:35:46.121Z,71.53
2023-09-26T00:38:12.585Z,71.51
2023-09-26T00:40:41.091Z,71.91
2023-09-26T00:43:07.590Z,71.90
2023-09-26T00:45:34.188Z,72.16
2023-09-26T00:48:00.724Z,72.16
2023-09-26T00:50:27.173Z,72.44
2023-09-26T00:52:53.762Z,72.95
2023-09-26T00:55:23.673Z,72.93
2023-09-26T00:57:50.430Z,73.07
2023-09-26T01:00:18.950Z,73.05
2023-09-26T01:02:45.488Z,73.05
2023-09-26T01:05:12.269Z,72.97
2023-09-26T01:07:40.519Z,73.02
2023-09-26T01:10:07.075Z,74.43
2023-09-26T01:12:33.575Z,73.00
2023-09-26T01:15:00.049Z,73.50
2023-09-26T01:17:30.716Z,73.41
2023-09-26T01:19:57.381Z,73.42
2023-09-26T01:22:28.129Z,73.56
2023-09-26T01:24:57.457Z,73.93
2023-09-26T01:27:23.859Z,74.20
2023-09-26T01:29:50.269Z,74.69
2023-09-26T01:32:16.700Z,74.55
2023-09-26T01:34:43.101Z,74.62
2023-09-26T01:37:09.565Z,74.83
2023-09-26T01:39:35.965Z,74.79
2023-09-26T01:42:02.358Z,74.59
2023-09-26T01:44:28.817Z,75.22
2023-09-26T01:46:55.367Z,74.89
2023-09-26T01:49:21.978Z,74.94
2023-09-26T01:51:48.320Z,75.24
2023-09-26T01:54:14.744Z,75.61
2023-09-26T01:56:41.103Z,75.66
2023-09-26T01:59:07.458Z,75.44
2023-09-26T02:01:33.936Z,75.91
2023-09-26T02:04:00.333Z,76.36
2023-09-26T02:06:26.908Z,76.27
2023-09-26T02:08:53.294Z,76.73
2023-09-26T02:11:19.673Z,76.19
2023-09-26T02:13:46.168Z,76.47
2023-09-26T02:16:13.473Z,76.59
2023-09-26T02:18:40.044Z,76.54
2023-09-26T02:21:06.421Z,76.59
2023-09-26T02:23:32.831Z,76.65
2023-09-26T02:25:59.192Z,76.72
2023-09-26T02:28:25.613Z,76.79
2023-09-26T02:30:52.048Z,76.95
2023-09-26T02:33:18.454Z,77.35
2023-09-26T02:35:44.778Z,76.85
2023-09-26T02:38:11.215Z,77.50
2023-09-26T02:40:37.650Z,77.07
2023-09-26T02:43:04.156Z,77.07
2023-09-26T02:45:31.731Z,77.04
2023-09-26T02:47:58.451Z,77.13
2023-09-26T02:50:24.958Z,77.16
2023-09-26T02:52:51.429Z,77.13
2023-09-26T02:55:17.841Z,77.29
2023-09-26T02:57:44.272Z,77.65
2023-09-26T03:00:10.946Z,77.36
2023-09-26T03:02:37.425Z,77.55
2023-09-26T03:05:04.041Z,77.45
2023-09-26T03:07:30.442Z,77.64
2023-09-26T03:09:57.040Z,77.91
2023-09-26T03:12:23.387Z,77.43
2023-09-26T03:14:49.741Z,77.94
2023-09-26T03:17:16.660Z,77.97
2023-09-26T03:19:45.770Z,77.99
2023-09-26T03:22:12.118Z,78.13
2023-09-26T03:24:38.439Z,77.82
2023-09-26T03:27:04.828Z,77.85
2023-09-26T03:29:31.315Z,77.90
2023-09-26T03:31:58.065Z,77.93
2023-09-26T03:34:27.696Z,77.62
2023-09-26T03:36:54.102Z,77.82
2023-09-26T03:39:20.569Z,77.97
2023-09-26T03:41:46.946Z,78.13
2023-09-26T03:44:13.291Z,78.38
2023-09-26T03:46:39.867Z,78.29
2023-09-26T03:49:06.498Z,78.56
2023-09-26T03:51:32.925Z,78.38
2023-09-26T03:53:59.326Z,78.69
2023-09-26T03:56:25.724Z,78.78
2023-09-26T03:58:53.372Z,78.68
2023-09-26T04:01:19.840Z,78.33
2023-09-26T04:03:47.217Z,78.79
2023-09-26T04:06:13.998Z,78.76
2023-09-26T04:08:40.515Z,79.01
2023-09-26T04:11:06.939Z,78.98
2023-09-26T04:13:33.360Z,78.85
2023-09-26T04:16:04.332Z,78.89
2023-09-26T04:18:30.761Z,78.77
2023-09-26T04:20:57.291Z,78.71
2023-09-26T04:23:23.637Z,78.80
2023-09-26T04:25:50.035Z,78.90
2023-09-26T04:28:16.416Z,78.67
2023-09-26T04:30:42.875Z,78.87
2023-09-26T04:33:09.561Z,78.53
2023-09-26T04:35:37.196Z,78.60
2023-09-26T04:38:07.125Z,78.29
2023-09-26T04:40:35.191Z,78.37
2023-09-26T04:43:03.734Z,78.91
2023-09-26T04:45:33.884Z,78.49
2023-09-26T04:48:01.155Z,78.70
2023-09-26T04:50:28.817Z,78.54
2023-09-26T04:52:55.654Z,78.72
2023-09-26T04:55:22.157Z,78.78
2023-09-26T04:57:48.584Z,78.73
2023-09-26T05:00:15.502Z,78.99
2023-09-26T05:02:41.972Z,78.78
2023-09-26T05:05:08.790Z,78.75
2023-09-26T05:07:35.321Z,78.72
2023-09-26T05:10:01.906Z,78.55
2023-09-26T05:12:29.164Z,78.92
2023-09-26T05:14:56.717Z,78.76
2023-09-26T05:17:24.209Z,78.88
2023-09-26T05:19:50.606Z,78.46
2023-09-26T05:22:17.057Z,78.34
2023-09-26T05:24:43.786Z,78.35
2023-09-26T05:27:10.203Z,78.34
2023-09-26T05:29:36.609Z,78.31
2023-09-26T05:32:03.247Z,78.50
2023-09-26T05:34:29.824Z,78.40
2023-09-26T05:36:56.489Z,77.92
2023-09-26T05:39:23.002Z,78.02
2023-09-26T05:41:49.366Z,78.09
2023-09-26T05:44:15.767Z,77.62
2023-09-26T05:46:42.404Z,78.03
2023-09-26T05:49:08.953Z,77.93
2023-09-26T05:51:35.381Z,77.73
2023-09-26T05:54:01.733Z,77.89
2023-09-26T05:56:28.610Z,77.94
2023-09-26T05:58:55.003Z,78.13
2023-09-26T06:01:21.737Z,77.76
2023-09-26T06:03:48.303Z,77.60
2023-09-26T06:06:14.742Z,77.18
2023-09-26T06:08:41.110Z,76.98
2023-09-26T06:11:07.514Z,76.92
2023-09-26T06:13:33.933Z,76.90
2023-09-26T06:16:00.354Z,76.88
2023-09-26T06:18:28.339Z,76.90
2023-09-26T06:20:54.710Z,76.57
2023-09-26T06:23:21.107Z,76.08
2023-09-26T06:25:57.569Z,76.01
2023-09-26T06:28:24.311Z,76.06
2023-09-26T06:30:51.030Z,75.95
2023-09-26T06:33:17.631Z,75.81
2023-09-26T06:35:44.904Z,76.00
2023-09-26T06:38:11.476Z,75.90
2023-09-26T06:40:37.863Z,75.47
2023-09-26T06:43:04.529Z,75.31
2023-09-26T06:45:31.104Z,75.17
2023-09-26T06:47:57.565Z,74.50
2023-09-26T06:50:24.005Z,74.55
2023-09-26T06:52:50.353Z,74.89
2023-09-26T06:55:16.991Z,74.67
2023-09-26T06:57:43.558Z,74.64
2023-09-26T07:00:10.393Z,74.12
2023-09-26T07:02:36.833Z,73.61
2023-09-26T07:05:03.522Z,73.66
2023-09-26T07:07:29.924Z,73.14
2023-09-26T07:09:56.473Z,72.90
2023-09-26T07:12:22.814Z,72.89
2023-09-26T07:14:49.205Z,72.53
2023-09-26T07:17:15.766Z,72.12
2023-09-26T07:19:42.208Z,72.15
2023-09-26T07:22:08.771Z,71.95
2023-09-26T07:24:48.757Z,71.79
2023-09-26T07:27:17.618Z,70.71
2023-09-26T07:29:47.308Z,70.22
2023-09-26T07:32:15.778Z,70.10
2023-09-26T07:34:42.495Z,69.87
2023-09-26T07:37:09.094Z,69.55
2023-09-26T07:39:35.575Z,69.35
2023-09-26T07:42:01.957Z,69.37
2023-09-26T07:44:28.672Z,69.07
2023-09-26T07:46:55.106Z,68.74
2023-09-26T07:49:21.714Z,69.07
2023-09-26T07:51:48.142Z,68.72
2023-09-26T07:54:14.546Z,68.06
2023-09-26T07:56:40.915Z,68.17
2023-09-26T07:59:07.383Z,67.63
2023-09-26T08:01:33.814Z,66.91
2023-09-26T08:04:00.268Z,66.50
2023-09-26T08:06:26.871Z,66.89
2023-09-26T08:08:53.307Z,66.82
2023-09-26T08:11:19.668Z,67.08
2023-09-26T08:13:46.031Z,66.76
2023-09-26T08:16:12.479Z,67.02
2023-09-26T08:18:38.976Z,66.95
2023-09-26T08:21:06.419Z,67.27
2023-09-26T08:23:32.995Z,67.30
2023-09-26T08:26:02.299Z,66.86
2023-09-26T08:28:29.163Z,67.04
2023-09-26T08:30:55.690Z,67.00
2023-09-26T08:33:22.103Z,66.39
2023-09-26T08:35:48.595Z,66.45
2023-09-26T08:38:14.957Z,66.93
2023-09-26T08:40:42.108Z,66.38
2023-09-26T08:43:09.268Z,65.86
2023-09-26T08:45:35.704Z,65.58
2023-09-26T08:48:02.254Z,64.69
2023-09-26T08:50:28.802Z,63.86
2023-09-26T08:52:55.230Z,63.62
2023-09-26T08:55:21.748Z,63.06
2023-09-26T08:57:51.033Z,62.99
2023-09-26T09:00:19.071Z,62.42
2023-09-26T09:02:45.631Z,61.97
2023-09-26T09:05:12.090Z,61.42
2023-09-26T09:07:41.588Z,60.72
2023-09-26T09:10:14.149Z,59.87
2023-09-26T09:12:42.206Z,59.64
2023-09-26T09:15:08.767Z,58.89
2023-09-26T09:17:41.475Z,58.27
2023-09-26T09:20:09.294Z,57.89
2023-09-26T09:22:35.783Z,58.20
2023-09-26T09:25:03.285Z,58.16
2023-09-26T09:27:37.355Z,58.52
2023-09-26T09:30:03.813Z,58.09
2023-09-26T09:32:30.259Z,58.04
2023-09-26T09:34:56.949Z,57.51
2023-09-26T09:37:23.543Z,57.53
2023-09-26T09:39:49.971Z,57.99
2023-09-26T09:42:16.502Z,57.75
2023-09-26T09:44:42.990Z,58.18
2023-09-26T09:47:10.320Z,58.05
2023-09-26T09:49:41.825Z,57.33
2023-09-26T09:52:10.955Z,57.58
2023-09-26T09:54:44.291Z,56.93
2023-09-26T09:57:10.698Z,57.70
2023-09-26T09:59:41.449Z,57.61
2023-09-26T10:02:08.245Z,57.61
2023-09-26T10:04:36.710Z,57.14
2023-09-26T10:07:03.179Z,56.85
2023-09-26T10:09:31.825Z,56.59
2023-09-26T10:12:00.082Z,56.65
2023-09-26T10:14:27.787Z,56.33
2023-09-26T10:16:57.036Z,55.87
2023-09-26T10:19:33.526Z,55.41
2023-09-26T10:22:20.276Z,55.88
2023-09-26T10:24:54.109Z,55.76
2023-09-26T10:30:19.675Z,55.19
2023-09-26T10:32:47.172Z,54.80
2023-09-26T10:35:17.515Z,53.96
2023-09-26T10:38:12.490Z,53.75
2023-09-26T10:40:38.965Z,53.87
2023-09-26T10:45:34.792Z,53.82
2023-09-26T10:50:57.108Z,51.84
2023-09-26T10:53:23.837Z,51.43
2023-09-26T10:55:50.239Z,52.59
2023-09-26T10:58:20.819Z,53.30
2023-09-26T11:00:51.902Z,52.54
2023-09-26T11:03:18.865Z,52.53
2023-09-26T11:05:46.282Z,52.71
2023-09-26T11:08:15.700Z,52.15
2023-09-26T11:10:50.032Z,52.13
2023-09-26T11:13:17.591Z,52.47
2023-09-26T11:15:44.180Z,52.52
2023-09-26T11:18:12.712Z,51.74
2023-09-26T11:20:50.539Z,52.13
2023-09-26T11:23:35.668Z,51.67
2023-09-26T11:26:02.290Z,52.32
2023-09-26T11:28:28.840Z,52.01
2023-09-26T11:30:55.304Z,51.49
2023-09-26T11:33:21.763Z,51.30
2023-09-26T11:35:48.146Z,51.20
2023-09-26T11:38:14.818Z,50.32
2023-09-26T11:40:41.449Z,49.56
2023-09-26T11:43:07.951Z,48.78
2023-09-26T11:45:35.720Z,47.95
2023-09-26T11:48:02.509Z,48.62
2023-09-26T11:50:29.821Z,48.87
2023-09-26T11:52:57.187Z,49.43
2023-09-26T11:55:23.694Z,48.95
2023-09-26T11:57:50.957Z,49.41
2023-09-26T12:00:18.584Z,49.47
2023-09-26T12:02:46.963Z,48.74
2023-09-26T12:05:14.103Z,49.13
2023-09-26T12:07:41.768Z,49.27
2023-09-26T12:10:09.857Z,49.39
2023-09-26T12:12:37.083Z,48.34
2023-09-26T12:15:39.068Z,48.95
2023-09-26T12:18:06.290Z,48.05
2023-09-26T12:20:32.838Z,47.48
2023-09-26T12:22:59.249Z,47.53
2023-09-26T12:25:27.148Z,48.05
2023-09-26T12:27:54.499Z,48.21
2023-09-26T12:30:24.410Z,47.62
2023-09-26T12:32:51.601Z,49.25
2023-09-26T12:35:18.694Z,49.45
2023-09-26T12:37:47.150Z,49.25
2023-09-26T12:40:14.470Z,49.49
2023-09-26T12:42:41.692Z,48.25
2023-09-26T12:45:09.046Z,48.91
2023-09-26T12:47:35.864Z,47.82
2023-09-26T12:50:02.385Z,48.09
2023-09-26T12:52:29.052Z,47.29
2023-09-26T12:54:55.518Z,47.12
2023-09-26T12:57:21.951Z,47.74
2023-09-26T12:59:51.894Z,48.23
2023-09-26T13:02:18.594Z,48.48
2023-09-26T13:04:45.070Z,48.51
2023-09-26T13:07:11.560Z,48.61
2023-09-26T13:09:37.924Z,47.50
2023-09-26T13:12:04.515Z,48.13
2023-09-26T13:14:30.896Z,48.41
2023-09-26T13:16:57.675Z,47.92
2023-09-26T13:19:24.131Z,46.98
2023-09-26T13:21:50.559Z,47.32
2023-09-26T13:24:17.030Z,47.05
2023-09-26T13:26:43.528Z,46.53
2023-09-26T13:29:11.142Z,45.46
2023-09-26T13:31:37.609Z,45.71
2023-09-26T13:34:04.183Z,46.49
2023-09-26T13:36:30.616Z,46.88
2023-09-26T13:38:56.998Z,47.74
2023-09-26T13:41:23.354Z,47.50
2023-09-26T13:43:49.804Z,47.61
2023-09-26T13:46:16.241Z,46.96
2023-09-26T13:48:42.629Z,48.10
2023-09-26T13:51:08.981Z,47.73
2023-09-26T13:53:36.170Z,47.43
2023-09-26T13:56:02.656Z,47.74
2023-09-26T13:58:29.034Z,47.65
2023-09-26T14:00:55.515Z,48.15
2023-09-26T14:03:22.044Z,48.43
2023-09-26T14:05:48.637Z,49.15
2023-09-26T14:08:15.149Z,49.83
2023-09-26T14:10:41.597Z,49.75
2023-09-26T14:13:08.007Z,49.17
2023-09-26T14:15:34.413Z,49.19
2023-09-26T14:18:00.943Z,49.06
2023-09-26T14:20:27.823Z,49.04
2023-09-26T14:22:55.074Z,48.68
2023-09-26T14:25:21.560Z,49.63
2023-09-26T14:27:48.084Z,49.49
2023-09-26T14:30:14.800Z,49.62
2023-09-26T14:32:41.758Z,49.87
2023-09-26T14:35:09.893Z,49.96
2023-09-26T14:37:36.395Z,50.29
2023-09-26T14:40:02.840Z,50.26
2023-09-26T14:42:29.204Z,50.28
2023-09-26T14:44:55.690Z,50.90
2023-09-26T14:47:22.108Z,50.92
2023-09-26T14:49:48.494Z,50.46
2023-09-26T14:52:14.899Z,50.07
2023-09-26T14:54:41.292Z,49.88
2023-09-26T14:57:07.690Z,50.21
2023-09-26T14:59:34.041Z,50.74
2023-09-26T15:02:00.481Z,51.00
2023-09-26T15:04:27.010Z,50.40
2023-09-26T15:06:53.372Z,51.11
2023-09-26T15:09:19.697Z,51.34
2023-09-26T15:11:46.054Z,51.55
2023-09-26T15:14:13.921Z,51.95
2023-09-26T15:16:40.721Z,51.78
2023-09-26T15:19:07.262Z,51.93
2023-09-26T15:21:33.837Z,51.84
2023-09-26T15:24:00.318Z,51.80
2023-09-26T15:26:26.784Z,51.90
2023-09-26T15:28:53.182Z,52.09
2023-09-26T15:31:19.590Z,52.35
2023-09-26T15:33:46.490Z,52.47
2023-09-26T15:36:14.039Z,52.95
2023-09-26T15:38:40.377Z,52.25
2023-09-26T15:41:16.598Z,53.36
2023-09-26T15:43:45.183Z,53.34
2023-09-26T15:46:11.889Z,53.39
2023-09-26T15:48:38.359Z,53.46
2023-09-26T15:51:11.592Z,53.68
2023-09-26T15:53:38.686Z,53.70
2023-09-26T15:56:05.137Z,54.41
2023-09-26T15:58:31.551Z,55.12
2023-09-26T16:00:58.066Z,54.86
2023-09-26T16:03:24.472Z,55.84
2023-09-26T16:05:51.244Z,55.98
2023-09-26T16:08:17.778Z,56.60
2023-09-26T16:10:44.293Z,57.10
2023-09-26T16:13:10.967Z,57.89
2023-09-26T16:15:37.506Z,58.20
2023-09-26T16:18:04.331Z,58.47
2023-09-26T16:20:30.755Z,58.44
2023-09-26T16:22:57.424Z,58.16
2023-09-26T16:25:23.869Z,57.58
2023-09-26T16:27:50.355Z,57.24
2023-09-26T16:30:16.824Z,57.49
2023-09-26T16:32:43.426Z,56.62
2023-09-26T16:35:10.049Z,56.88
2023-09-26T16:37:36.578Z,56.34
2023-09-26T16:40:03.375Z,56.14
2023-09-26T16:42:29.786Z,56.58
2023-09-26T16:44:56.251Z,57.47
2023-09-26T16:47:22.665Z,57.29
2023-09-26T16:49:49.166Z,57.73
2023-09-26T16:52:15.972Z,57.79
2023-09-26T16:54:42.398Z,58.06
2023-09-26T16:57:08.827Z,57.60
2023-09-26T16:59:35.310Z,57.93
2023-09-26T17:02:01.832Z,57.75
2023-09-26T17:04:29.137Z,58.06
2023-09-26T17:06:55.644Z,58.58
2023-09-26T17:09:22.087Z,58.58
2023-09-26T17:11:50.453Z,59.33
2023-09-26T17:14:17.220Z,59.17
2023-09-26T17:16:43.668Z,59.89
2023-09-26T17:19:10.073Z,60.18
2023-09-26T17:21:36.496Z,60.65
2023-09-26T17:24:03.051Z,60.63
2023-09-26T17:26:29.435Z,60.76
2023-09-26T17:28:55.926Z,60.52
2023-09-26T17:31:22.339Z,60.54
2023-09-26T17:33:48.794Z,60.42
2023-09-26T17:36:15.201Z,60.50
2023-09-26T17:38:41.544Z,60.52
2023-09-26T17:41:08.785Z,60.86
2023-09-26T17:43:37.220Z,61.26
2023-09-26T17:46:04.269Z,62.24
2023-09-26T17:48:31.575Z,62.34
2023-09-26T17:50:58.856Z,62.66
2023-09-26T17:53:25.231Z,62.96
2023-09-26T17:55:51.679Z,63.31
2023-09-26T17:58:18.141Z,63.38
2023-09-26T18:00:44.637Z,63.40
2023-09-26T18:03:11.051Z,63.14
2023-09-26T18:05:37.566Z,63.41
2023-09-26T18:08:04.180Z,63.71
2023-09-26T18:10:30.549Z,63.45
2023-09-26T18:12:56.993Z,63.65
2023-09-26T18:15:23.414Z,63.71
2023-09-26T18:17:50.084Z,63.94
2023-09-26T18:20:16.630Z,64.29
2023-09-26T18:22:43.133Z,64.40
2023-09-26T18:25:09.989Z,64.12
2023-09-26T18:27:36.379Z,64.18
2023-09-26T18:30:02.869Z,64.24
2023-09-26T18:32:29.292Z,64.19
2023-09-26T18:34:56.188Z,64.33
2023-09-26T18:37:22.636Z,64.25
2023-09-26T18:39:49.021Z,64.47
2023-09-26T18:42:15.680Z,64.69
2023-09-26T18:44:42.080Z,65.02
2023-09-26T18:47:08.509Z,64.81
2023-09-26T18:49:35.178Z,64.81
2023-09-26T18:52:01.606Z,64.86
2023-09-26T18:54:28.093Z,64.95
2023-09-26T18:56:54.672Z,65.00
2023-09-26T18:59:21.232Z,65.48
2023-09-26T19:01:48.749Z,65.35
2023-09-26T19:04:15.427Z,64.76
2023-09-26T19:06:42.122Z,64.98
2023-09-26T19:09:08.677Z,65.28
2023-09-26T19:11:35.097Z,65.54
2023-09-26T19:14:01.568Z,64.82
2023-09-26T19:16:28.572Z,64.89
2023-09-26T19:19:04.978Z,64.66
2023-09-26T19:21:33.520Z,64.64
2023-09-26T19:24:00.003Z,64.43
2023-09-26T19:26:26.469Z,64.49
2023-09-26T19:28:52.966Z,64.53
2023-09-26T19:31:19.451Z,64.77
2023-09-26T19:33:45.837Z,64.79
2023-09-26T19:36:12.339Z,64.68
2023-09-26T19:38:38.702Z,65.03
2023-09-26T19:41:05.073Z,65.01
2023-09-26T19:43:31.508Z,64.91
2023-09-26T19:45:58.444Z,65.23
2023-09-26T19:48:24.870Z,65.02
2023-09-26T19:50:51.303Z,65.32
2023-09-26T19:53:17.859Z,65.56
2023-09-26T19:55:48.114Z,65.54
2023-09-26T19:58:14.796Z,64.92
2023-09-26T20:00:42.242Z,65.34
2023-09-26T20:03:09.533Z,65.53
2023-09-26T20:05:36.066Z,65.61
2023-09-26T20:08:02.593Z,65.81
2023-09-26T20:10:29.050Z,66.20
2023-09-26T20:12:55.576Z,66.40
2023-09-26T20:15:24.170Z,66.71
2023-09-26T20:17:51.153Z,66.39
2023-09-26T20:20:17.648Z,66.84
2023-09-26T20:22:44.245Z,66.46
2023-09-26T20:25:10.702Z,67.00
2023-09-26T20:27:37.955Z,67.22
2023-09-26T20:30:04.873Z,67.31
2023-09-26T20:32:31.838Z,67.57
2023-09-26T20:34:58.516Z,67.96
2023-09-26T20:37:24.982Z,67.82
2023-09-26T20:39:51.426Z,67.94
2023-09-26T20:42:17.818Z,68.07
2023-09-26T20:44:44.184Z,68.79
2023-09-26T20:47:10.719Z,68.61
2023-09-26T20:49:37.290Z,68.62
2023-09-26T20:52:03.777Z,69.20
2023-09-26T20:54:30.152Z,69.54
2023-09-26T20:56:56.633Z,69.80
2023-09-26T20:59:23.150Z,69.42
2023-09-26T21:01:49.715Z,69.52
2023-09-26T21:04:16.269Z,69.80
2023-09-26T21:06:43.257Z,70.24
2023-09-26T21:09:09.871Z,69.96
2023-09-26T21:11:36.287Z,70.30
2023-09-26T21:14:02.676Z,69.81
2023-09-26T21:16:29.173Z,70.05
2023-09-26T21:18:55.892Z,70.05
2023-09-26T21:21:24.401Z,69.90
2023-09-26T21:23:51.397Z,69.46
2023-09-26T21:26:19.383Z,69.28
2023-09-26T21:28:46.174Z,68.58
2023-09-26T21:31:12.743Z,68.30
2023-09-26T21:33:39.269Z,67.93
2023-09-26T21:36:06.224Z,66.95
2023-09-26T21:38:32.928Z,66.48
2023-09-26T21:40:59.513Z,66.13
2023-09-26T21:43:26.066Z,66.09
2023-09-26T21:45:52.654Z,66.02
2023-09-26T21:48:19.193Z,65.11
2023-09-26T21:50:45.712Z,65.13
2023-09-26T21:53:13.536Z,64.90
2023-09-26T21:55:39.997Z,64.10
2023-09-26T21:58:06.458Z,63.95
2023-09-26T22:00:32.871Z,63.71
2023-09-26T22:02:59.324Z,63.35
2023-09-26T22:05:26.021Z,63.12
2023-09-26T22:07:53.931Z,63.05
2023-09-26T22:10:21.106Z,62.90
2023-09-26T22:12:47.531Z,63.08
2023-09-26T22:15:13.956Z,62.58
2023-09-26T22:17:41.274Z,62.97
2023-09-26T22:20:13.942Z,62.62
2023-09-26T22:22:40.807Z,62.94
2023-09-26T22:25:09.355Z,62.84
2023-09-26T22:27:36.456Z,63.15
2023-09-26T22:30:04.910Z,62.79
2023-09-26T22:32:31.397Z,62.77
2023-09-26T22:34:58.375Z,62.95
2023-09-26T22:37:24.831Z,62.82
2023-09-26T22:39:51.395Z,63.43
2023-09-26T22:42:17.741Z,62.69
2023-09-26T22:44:44.219Z,62.94
2023-09-26T22:47:11.076Z,62.97
2023-09-26T22:49:37.607Z,63.30
2023-09-26T22:52:04.636Z,62.92
2023-09-26T22:54:31.249Z,63.79
2023-09-26T22:56:57.771Z,64.19
2023-09-26T22:59:25.085Z,65.58
2023-09-26T23:01:52.389Z,66.92
2023-09-26T23:04:19.480Z,68.63
2023-09-26T23:06:46.188Z,69.19
2023-09-26T23:09:13.662Z,69.64
2023-09-26T23:11:40.315Z,70.38
2023-09-26T23:14:06.906Z,70.48
2023-09-26T23:16:33.589Z,70.56
2023-09-26T23:18:59.969Z,71.47
2023-09-26T23:21:26.446Z,71.29
2023-09-26T23:23:52.765Z,71.39
2023-09-26T23:26:19.292Z,72.16
2023-09-26T23:28:45.750Z,71.48
2023-09-26T23:31:13.582Z,72.69
2023-09-26T23:33:40.078Z,72.54
2023-09-26T23:36:07.448Z,73.02
2023-09-26T23:38:34.358Z,73.41
2023-09-26T23:41:00.745Z,73.79
2023-09-26T23:43:27.987Z,73.23
2023-09-26T23:45:54.878Z,73.54
2023-09-26T23:48:21.341Z,73.91
2023-09-26T23:50:47.671Z,73.60
2023-09-26T23:53:14.188Z,73.85
2023-09-26T23:55:40.630Z,74.13
2023-09-26T23:58:07.024Z,73.98
